IBE09HV LDDU-LEMD
Flight info
| Callsign | IBE09HV |
|---|---|
| Flight time | N/A |
| Altitude | 36000 |
| Route | AMUGO DCT KATTI DCT BATOX DCT INDUM DCT EPIKU DCT GINOX DCT KIFMI DCT ELVOP DCT MUREN M601 BCN N975 ADUXO |
| Aircraft | A320/M-SDE3FGHIRWY/LB1 |
Departure
| Time | 2026-04-30 14:09 |
|---|---|
| Airport | Dubrovnik Ruđer Bošković Airport (LDDU) |
Arrival
| Time | N/A |
|---|---|
| Airport | Adolfo Suárez Madrid–Barajas Airport (LEMD) |
| Time | Latitude | Longitude | Altitude | Speed | Heading |
|---|---|---|---|---|---|
| 2026-04-30 13:52 | 42.56088 | 18.26302 | 522 ft | 0 kts | 206° |
| 2026-04-30 14:02 | 42.56094 | 18.26306 | 522 ft | 2 kts | 206° |
| 2026-04-30 14:02 | 42.56112 | 18.26318 | 522 ft | 3 kts | 206° |
| 2026-04-30 14:02 | 42.56130 | 18.26330 | 522 ft | 3 kts | 213° |
| 2026-04-30 14:02 | 42.56140 | 18.26341 | 522 ft | 3 kts | 275° |
| 2026-04-30 14:03 | 42.56138 | 18.26352 | 522 ft | 2 kts | 298° |
| 2026-04-30 14:03 | 42.56130 | 18.26372 | 521 ft | 1 kts | 298° |
| 2026-04-30 14:03 | 42.56129 | 18.26375 | 521 ft | 0 kts | 298° |
| 2026-04-30 14:05 | 42.56136 | 18.26359 | 522 ft | 7 kts | 298° |
| 2026-04-30 14:05 | 42.56179 | 18.26248 | 522 ft | 19 kts | 298° |
| 2026-04-30 14:05 | 42.56239 | 18.26091 | 524 ft | 18 kts | 297° |
| 2026-04-30 14:05 | 42.56307 | 18.25918 | 526 ft | 21 kts | 298° |
| 2026-04-30 14:06 | 42.56376 | 18.25745 | 527 ft | 20 kts | 298° |
| 2026-04-30 14:06 | 42.56523 | 18.25379 | 531 ft | 25 kts | 298° |
| 2026-04-30 14:07 | 42.56673 | 18.24998 | 534 ft | 23 kts | 298° |
| 2026-04-30 14:07 | 42.56743 | 18.24819 | 536 ft | 20 kts | 298° |
| 2026-04-30 14:07 | 42.56838 | 18.24678 | 537 ft | 22 kts | 344° |
| 2026-04-30 14:08 | 42.56907 | 18.24890 | 536 ft | 0 kts | 120° |
| 2026-04-30 14:08 | 42.56785 | 18.25199 | 532 ft | 74 kts | 118° |
| 2026-04-30 14:08 | 42.55948 | 18.27297 | 571 ft | 170 kts | 118° |
| 2026-04-30 14:09 | 42.55360 | 18.28701 | 1187 ft | 172 kts | 115° |
| 2026-04-30 14:09 | 42.54756 | 18.30089 | 2013 ft | 166 kts | 122° |
| 2026-04-30 14:09 | 42.52694 | 18.31357 | 3006 ft | 185 kts | 177° |
| 2026-04-30 14:10 | 42.51359 | 18.31374 | 3447 ft | 199 kts | 181° |
| 2026-04-30 14:10 | 42.49959 | 18.30995 | 3745 ft | 217 kts | 209° |
| 2026-04-30 14:10 | 42.48772 | 18.29613 | 4006 ft | 233 kts | 224° |
| 2026-04-30 14:10 | 42.47637 | 18.27944 | 4283 ft | 252 kts | 239° |
| 2026-04-30 14:11 | 42.46745 | 18.25786 | 4642 ft | 272 kts | 244° |
| 2026-04-30 14:11 | 42.45887 | 18.23456 | 5316 ft | 279 kts | 246° |
| 2026-04-30 14:11 | 42.45040 | 18.21077 | 6106 ft | 282 kts | 246° |
| 2026-04-30 14:11 | 42.44184 | 18.18679 | 6889 ft | 284 kts | 246° |
| 2026-04-30 14:12 | 42.43312 | 18.16268 | 7659 ft | 286 kts | 248° |
| 2026-04-30 14:12 | 42.42681 | 18.13728 | 8402 ft | 285 kts | 263° |
| 2026-04-30 14:12 | 42.42553 | 18.11071 | 9163 ft | 283 kts | 278° |
| 2026-04-30 14:12 | 42.42921 | 18.08474 | 9931 ft | 281 kts | 291° |
| 2026-04-30 14:13 | 42.43523 | 18.05926 | 10423 ft | 293 kts | 291° |
| 2026-04-30 14:13 | 42.44162 | 18.03201 | 10580 ft | 315 kts | 290° |
| 2026-04-30 14:13 | 42.44846 | 18.00271 | 10708 ft | 337 kts | 290° |
| 2026-04-30 14:13 | 42.45564 | 17.97177 | 11054 ft | 349 kts | 290° |
| 2026-04-30 14:14 | 42.46292 | 17.94017 | 11647 ft | 353 kts | 290° |
| 2026-04-30 14:14 | 42.47022 | 17.90825 | 12285 ft | 356 kts | 289° |
| 2026-04-30 14:14 | 42.47756 | 17.87607 | 12926 ft | 359 kts | 289° |
| 2026-04-30 14:14 | 42.48498 | 17.84361 | 13564 ft | 362 kts | 289° |
| 2026-04-30 14:15 | 42.49235 | 17.81136 | 14151 ft | 365 kts | 289° |
| 2026-04-30 14:15 | 42.49987 | 17.77843 | 14732 ft | 366 kts | 289° |
| 2026-04-30 14:15 | 42.50739 | 17.74550 | 15341 ft | 366 kts | 289° |
| 2026-04-30 14:15 | 42.51495 | 17.71242 | 15897 ft | 368 kts | 289° |
| 2026-04-30 14:16 | 42.52253 | 17.67921 | 16481 ft | 369 kts | 289° |
| 2026-04-30 14:16 | 42.53010 | 17.64594 | 17068 ft | 370 kts | 289° |
| 2026-04-30 14:16 | 42.53768 | 17.61258 | 17643 ft | 370 kts | 288° |
| 2026-04-30 14:16 | 42.54297 | 17.57833 | 18207 ft | 373 kts | 278° |
| 2026-04-30 14:17 | 42.54365 | 17.54304 | 18712 ft | 376 kts | 271° |
| 2026-04-30 14:17 | 42.54297 | 17.50752 | 19180 ft | 377 kts | 271° |
| 2026-04-30 14:17 | 42.54229 | 17.47194 | 19645 ft | 378 kts | 271° |
| 2026-04-30 14:17 | 42.54159 | 17.43630 | 20109 ft | 379 kts | 271° |
| 2026-04-30 14:18 | 42.54088 | 17.40054 | 20564 ft | 380 kts | 271° |
| 2026-04-30 14:18 | 42.54020 | 17.36459 | 20923 ft | 383 kts | 271° |
| 2026-04-30 14:18 | 42.53886 | 17.29189 | 21731 ft | 387 kts | 271° |
| 2026-04-30 14:19 | 42.53741 | 17.21864 | 22586 ft | 390 kts | 271° |
| 2026-04-30 14:19 | 42.53664 | 17.18185 | 23004 ft | 391 kts | 271° |
| 2026-04-30 14:19 | 42.53585 | 17.14496 | 23406 ft | 392 kts | 271° |
| 2026-04-30 14:20 | 42.53511 | 17.10798 | 23770 ft | 393 kts | 271° |
| 2026-04-30 14:20 | 42.53437 | 17.07106 | 24203 ft | 391 kts | 270° |
| 2026-04-30 14:20 | 42.53269 | 16.99733 | 24862 ft | 393 kts | 271° |
| 2026-04-30 14:21 | 42.53192 | 16.96078 | 25170 ft | 394 kts | 271° |
| 2026-04-30 14:21 | 42.53110 | 16.92363 | 25488 ft | 395 kts | 271° |
| 2026-04-30 14:21 | 42.52932 | 16.84909 | 26123 ft | 396 kts | 270° |
| 2026-04-30 14:22 | 42.52843 | 16.81168 | 26429 ft | 397 kts | 270° |
| 2026-04-30 14:22 | 42.52664 | 16.73672 | 27012 ft | 399 kts | 270° |
| 2026-04-30 14:22 | 42.52572 | 16.69913 | 27285 ft | 399 kts | 271° |
| 2026-04-30 14:23 | 42.52384 | 16.62364 | 27813 ft | 402 kts | 271° |
| 2026-04-30 14:23 | 42.52183 | 16.54783 | 28350 ft | 403 kts | 271° |
| 2026-04-30 14:24 | 42.51980 | 16.47183 | 28988 ft | 402 kts | 271° |
| 2026-04-30 14:24 | 42.51882 | 16.43406 | 29382 ft | 400 kts | 271° |
| 2026-04-30 14:25 | 42.51677 | 16.35918 | 30174 ft | 396 kts | 271° |
| 2026-04-30 14:25 | 42.51465 | 16.28523 | 30681 ft | 396 kts | 271° |
| 2026-04-30 14:26 | 42.51253 | 16.21079 | 31189 ft | 395 kts | 271° |
| 2026-04-30 14:26 | 42.51147 | 16.17359 | 31451 ft | 395 kts | 271° |
| 2026-04-30 14:26 | 42.50930 | 16.09936 | 31975 ft | 394 kts | 271° |
| 2026-04-30 14:27 | 42.50803 | 16.06233 | 32241 ft | 394 kts | 268° |
| 2026-04-30 14:27 | 42.50338 | 16.02560 | 32501 ft | 398 kts | 260° |
| 2026-04-30 14:27 | 42.49639 | 15.98930 | 32758 ft | 396 kts | 261° |
| 2026-04-30 14:28 | 42.48263 | 15.91766 | 33466 ft | 391 kts | 261° |
| 2026-04-30 14:28 | 42.47581 | 15.88206 | 33739 ft | 390 kts | 261° |
| 2026-04-30 14:28 | 42.46903 | 15.84655 | 33998 ft | 389 kts | 261° |
| 2026-04-30 14:28 | 42.46224 | 15.81102 | 34142 ft | 390 kts | 261° |
| 2026-04-30 14:29 | 42.43722 | 15.68119 | 34171 ft | 389 kts | 261° |
| 2026-04-30 14:31 | 42.40052 | 15.49268 | 34179 ft | 389 kts | 261° |
| 2026-04-30 14:31 | 42.37966 | 15.38650 | 34169 ft | 389 kts | 261° |
| 2026-04-30 14:32 | 42.35880 | 15.28051 | 34160 ft | 389 kts | 261° |
| 2026-04-30 14:33 | 42.34481 | 15.20957 | 34193 ft | 391 kts | 261° |
| 2026-04-30 14:33 | 42.32363 | 15.10322 | 34190 ft | 391 kts | 261° |
| 2026-04-30 14:34 | 42.30940 | 15.03232 | 34201 ft | 391 kts | 261° |
| 2026-04-30 14:34 | 42.29520 | 14.96143 | 34204 ft | 391 kts | 261° |
| 2026-04-30 14:35 | 42.27377 | 14.85512 | 34204 ft | 392 kts | 261° |
| 2026-04-30 14:36 | 42.25939 | 14.78413 | 34190 ft | 393 kts | 260° |
| 2026-04-30 14:36 | 42.24498 | 14.71289 | 34204 ft | 394 kts | 260° |
| 2026-04-30 14:37 | 42.23049 | 14.64160 | 34209 ft | 394 kts | 260° |
| 2026-04-30 14:37 | 42.21605 | 14.57081 | 34209 ft | 394 kts | 260° |
| 2026-04-30 14:38 | 42.20145 | 14.49958 | 34218 ft | 394 kts | 260° |
| 2026-04-30 14:38 | 42.18679 | 14.42836 | 34212 ft | 394 kts | 260° |
| 2026-04-30 14:39 | 42.17206 | 14.35720 | 34214 ft | 394 kts | 260° |
| 2026-04-30 14:39 | 42.15727 | 14.28611 | 34212 ft | 394 kts | 260° |
| 2026-04-30 14:40 | 42.13510 | 14.17944 | 34191 ft | 395 kts | 260° |
| 2026-04-30 14:40 | 42.12021 | 14.10824 | 34208 ft | 394 kts | 260° |
| 2026-04-30 14:41 | 42.10532 | 14.03716 | 34198 ft | 394 kts | 260° |
| 2026-04-30 14:41 | 42.09043 | 13.96612 | 34199 ft | 394 kts | 260° |
| 2026-04-30 14:42 | 42.07544 | 13.89506 | 34192 ft | 395 kts | 260° |
| 2026-04-30 14:42 | 42.06041 | 13.82458 | 34185 ft | 394 kts | 260° |
| 2026-04-30 14:43 | 42.04533 | 13.75382 | 34189 ft | 394 kts | 260° |
| 2026-04-30 14:43 | 42.03029 | 13.68305 | 34178 ft | 393 kts | 260° |
| 2026-04-30 14:44 | 42.01511 | 13.61234 | 34166 ft | 393 kts | 260° |
| 2026-04-30 14:44 | 41.99992 | 13.54171 | 34166 ft | 393 kts | 260° |
| 2026-04-30 14:45 | 41.98470 | 13.47106 | 34148 ft | 393 kts | 260° |
| 2026-04-30 14:45 | 41.96944 | 13.40046 | 34145 ft | 393 kts | 260° |
| 2026-04-30 14:46 | 41.95418 | 13.32995 | 34135 ft | 393 kts | 259° |
| 2026-04-30 14:46 | 41.94130 | 13.27083 | 34139 ft | 393 kts | 259° |
| 2026-04-30 14:47 | 41.92337 | 13.18887 | 34129 ft | 394 kts | 259° |
| 2026-04-30 14:47 | 41.90793 | 13.11839 | 34101 ft | 393 kts | 259° |
| 2026-04-30 14:48 | 41.89246 | 13.04804 | 34116 ft | 393 kts | 259° |
| 2026-04-30 14:48 | 41.87696 | 12.97763 | 34121 ft | 394 kts | 259° |
| 2026-04-30 14:49 | 41.86141 | 12.90743 | 34111 ft | 392 kts | 259° |
| 2026-04-30 14:49 | 41.84586 | 12.83735 | 34111 ft | 392 kts | 259° |
| 2026-04-30 14:50 | 41.82239 | 12.73193 | 34111 ft | 394 kts | 259° |
| 2026-04-30 14:51 | 41.80146 | 12.63813 | 34113 ft | 395 kts | 259° |
| 2026-04-30 14:52 | 41.77764 | 12.53254 | 34112 ft | 395 kts | 259° |
| 2026-04-30 14:52 | 41.75372 | 12.42699 | 34110 ft | 395 kts | 259° |
| 2026-04-30 14:53 | 41.72984 | 12.32156 | 34047 ft | 395 kts | 259° |
| 2026-04-30 14:54 | 41.69783 | 12.18096 | 34136 ft | 395 kts | 258° |
| 2026-04-30 14:55 | 41.67361 | 12.07550 | 34135 ft | 395 kts | 258° |
| 2026-04-30 14:56 | 41.64107 | 11.93502 | 34100 ft | 395 kts | 258° |
| 2026-04-30 14:57 | 41.61669 | 11.82972 | 34080 ft | 395 kts | 258° |
| 2026-04-30 14:58 | 41.58410 | 11.69002 | 34088 ft | 395 kts | 258° |
| 2026-04-30 14:58 | 41.55948 | 11.58507 | 34096 ft | 394 kts | 258° |
| 2026-04-30 15:00 | 41.51835 | 11.41080 | 34106 ft | 393 kts | 258° |
| 2026-04-30 15:01 | 41.48538 | 11.27223 | 34100 ft | 393 kts | 257° |
| 2026-04-30 15:01 | 41.46043 | 11.16770 | 34106 ft | 393 kts | 257° |
| 2026-04-30 15:02 | 41.44376 | 11.09841 | 34091 ft | 392 kts | 257° |
| 2026-04-30 15:03 | 41.40202 | 10.92541 | 34106 ft | 392 kts | 257° |
| 2026-04-30 15:04 | 41.36016 | 10.75307 | 34113 ft | 392 kts | 257° |
| 2026-04-30 15:06 | 41.31790 | 10.58055 | 34121 ft | 392 kts | 257° |
| 2026-04-30 15:07 | 41.28404 | 10.44276 | 34101 ft | 392 kts | 257° |
| 2026-04-30 15:08 | 41.24984 | 10.30515 | 34115 ft | 392 kts | 257° |
| 2026-04-30 15:09 | 41.20872 | 10.13285 | 34115 ft | 389 kts | 261° |
| 2026-04-30 15:10 | 41.18452 | 9.99296 | 34125 ft | 389 kts | 261° |
| 2026-04-30 15:11 | 41.14795 | 9.78394 | 34116 ft | 388 kts | 261° |
| 2026-04-30 15:13 | 41.11705 | 9.60947 | 34117 ft | 389 kts | 261° |
| 2026-04-30 15:14 | 41.07345 | 9.36529 | 34108 ft | 389 kts | 260° |
| 2026-04-30 15:17 | 41.01661 | 9.05183 | 34085 ft | 389 kts | 260° |
| 2026-04-30 15:19 | 40.96648 | 8.77325 | 34065 ft | 390 kts | 262° |